Time;durP1;ratioP1;P1;durP2;ratioP2;P2;SDS_P1;SDS_P2;PMS_P1;PMS_P2;Temp;Humidity;BMP_temperature;BMP_pressure;BME280_temperature;BME280_humidity;BME280_pressure;Samples;Min_cycle;Max_cycle;Signal;HPM_P1;HPM_P2
2023/04/25 00:00:14;;;;;;;;;5.50;5.50;;;;;11.68;55.27;100678.31;5060809;28;45345;-62
2023/04/25 00:02:39;;;;;;;;;7.25;6.75;;;;;11.67;55.26;100683.56;5042631;28;45469;-62
2023/04/25 00:05:05;;;;;;;;;4.50;4.50;;;;;11.68;55.06;100680.06;5059088;28;47059;-62
2023/04/25 00:07:32;;;;;;;;;4.50;4.00;;;;;11.68;54.95;100685.31;5060647;28;45249;-62
2023/04/25 00:09:57;;;;;;;;;4.75;4.00;;;;;11.67;55.30;100684.47;5060509;28;45270;-62
2023/04/25 00:12:22;;;;;;;;;5.75;5.75;;;;;11.66;55.22;100682.72;5060424;28;45310;-62
2023/04/25 00:14:50;;;;;;;;;3.50;3.50;;;;;11.60;54.99;100677.56;5041422;28;46121;-62
2023/04/25 00:17:16;;;;;;;;;4.75;4.00;;;;;11.63;55.19;100679.28;5060424;28;45231;-62
2023/04/25 00:19:44;;;;;;;;;4.75;3.25;;;;;11.60;55.07;100681.97;5060309;28;45245;-62
2023/04/25 00:22:10;;;;;;;;;4.75;4.50;;;;;11.59;55.03;100682.88;5060446;28;45366;-62
2023/04/25 00:24:35;;;;;;;;;5.50;5.50;;;;;11.57;55.14;100682.88;5059151;28;46174;-61
2023/04/25 00:27:01;;;;;;;;;6.00;5.50;;;;;11.55;55.11;100674.16;5059935;28;45265;-61
2023/04/25 00:29:26;;;;;;;;;6.00;3.50;;;;;11.51;55.13;100672.50;5059963;28;45502;-61
2023/04/25 00:31:51;;;;;;;;;5.25;4.00;;;;;11.50;54.87;100676.03;5059502;28;45486;-62
2023/04/25 00:34:17;;;;;;;;;4.25;4.25;;;;;11.50;55.18;100681.28;5059987;28;45392;-59
2023/04/25 00:36:42;;;;;;;;;5.00;4.00;;;;;11.49;55.12;100683.03;5059878;28;45316;-59
2023/04/25 00:39:08;;;;;;;;;5.75;5.00;;;;;11.47;55.03;100679.59;5060145;28;45315;-59
2023/04/25 00:41:33;;;;;;;;;8.00;6.00;;;;;11.44;55.14;100674.34;5059921;28;45276;-59
2023/04/25 00:44:00;;;;;;;;;5.00;5.00;;;;;11.43;55.21;100682.28;5059877;28;45245;-60
2023/04/25 00:46:26;;;;;;;;;8.00;8.00;;;;;11.39;55.01;100676.22;5060121;28;45394;-61
2023/04/25 00:48:51;;;;;;;;;8.75;7.25;;;;;11.35;55.20;100678.03;5059894;28;45270;-61
2023/04/25 00:51:20;;;;;;;;;8.75;8.25;;;;;11.33;55.29;100674.56;5060193;28;45288;-61
2023/04/25 00:53:47;;;;;;;;;9.00;7.50;;;;;11.30;55.39;100674.63;5059725;28;45387;-59
2023/04/25 00:56:12;;;;;;;;;9.25;8.75;;;;;11.27;55.42;100677.31;5059409;28;45513;-61
2023/04/25 00:58:38;;;;;;;;;11.75;9.50;;;;;11.23;55.41;100670.34;5059821;28;45280;-61
2023/04/25 01:01:04;;;;;;;;;12.00;10.50;;;;;11.20;55.40;100676.53;5060072;28;45546;-61
2023/04/25 01:03:33;;;;;;;;;10.00;9.25;;;;;11.20;55.45;100678.31;5059547;28;45339;-61
2023/04/25 01:05:58;;;;;;;;;10.75;7.50;;;;;11.19;55.46;100677.47;5041771;28;45365;-61
2023/04/25 01:08:27;;;;;;;;;11.00;9.25;;;;;11.14;55.64;100679.28;5058861;28;45345;-61
2023/04/25 01:10:52;;;;;;;;;10.25;10.25;;;;;11.15;55.52;100685.41;5041916;28;45575;-61
2023/04/25 01:13:17;;;;;;;;;7.00;7.00;;;;;11.13;55.65;100685.44;5059207;28;45930;-61
2023/04/25 01:15:43;;;;;;;;;8.75;7.75;;;;;11.12;55.58;100690.72;5059704;28;45403;-61
2023/04/25 01:18:09;;;;;;;;;8.25;7.75;;;;;11.11;55.70;100678.50;5059778;28;45166;-61
2023/04/25 01:20:37;;;;;;;;;9.50;8.75;;;;;11.07;55.75;100677.66;5041253;28;45350;-61
2023/04/25 01:23:02;;;;;;;;;7.00;7.00;;;;;11.03;55.62;100674.22;5059533;28;45327;-61
2023/04/25 01:25:29;;;;;;;;;8.75;7.75;;;;;11.01;55.76;100668.09;5059263;28;45347;-61
2023/04/25 01:27:55;;;;;;;;;8.75;8.25;;;;;11.05;55.52;100668.94;5059586;28;45341;-61
2023/04/25 01:30:21;;;;;;;;;9.25;6.00;;;;;11.04;55.70;100670.69;5059504;28;45335;-61
2023/04/25 01:32:48;;;;;;;;;11.00;8.50;;;;;11.02;55.75;100667.22;5059401;28;45521;-61
2023/04/25 01:35:13;;;;;;;;;7.50;7.00;;;;;11.01;55.66;100665.47;5054908;28;45260;-60
2023/04/25 01:37:43;;;;;;;;;7.00;7.00;;;;;10.97;55.78;100666.44;5056731;28;45313;-60
2023/04/25 01:40:10;;;;;;;;;8.50;7.50;;;;;10.97;55.68;100674.31;5041338;28;45561;-60
2023/04/25 01:42:37;;;;;;;;;11.00;8.75;;;;;10.96;55.72;100669.09;5061332;28;45991;-60
2023/04/25 01:45:03;;;;;;;;;7.00;7.00;;;;;10.95;55.73;100669.97;5062870;28;45383;-60
2023/04/25 01:47:29;;;;;;;;;10.50;9.00;;;;;10.93;55.91;100663.88;5062726;28;45417;-60
2023/04/25 01:49:55;;;;;;;;;6.75;6.00;;;;;10.88;55.82;100667.44;5044541;28;45525;-60
2023/04/25 01:52:21;;;;;;;;;9.75;7.00;;;;;10.90;55.96;100675.31;5062618;28;45172;-60
2023/04/25 01:54:47;;;;;;;;;11.75;10.25;;;;;10.88;55.92;100663.97;5062529;28;45253;-60
2023/04/25 01:57:13;;;;;;;;;7.50;6.00;;;;;10.86;55.83;100668.38;5062315;28;45225;-60
2023/04/25 01:59:40;;;;;;;;;11.00;9.25;;;;;10.86;56.00;100671.00;5044616;28;45384;-60
2023/04/25 02:02:06;;;;;;;;;7.75;7.75;;;;;10.85;55.77;100666.63;5062355;28;47209;-60
2023/04/25 02:04:31;;;;;;;;;10.50;8.25;;;;;10.82;55.94;100667.56;5062522;28;45423;-60
2023/04/25 02:06:57;;;;;;;;;14.50;9.75;;;;;10.84;56.12;100668.41;5062421;28;45373;-60
2023/04/25 02:09:22;;;;;;;;;11.00;8.00;;;;;10.84;55.95;100675.41;5062395;28;45546;-60
2023/04/25 02:11:47;;;;;;;;;13.00;9.25;;;;;10.84;55.81;100678.91;5062104;28;46057;-60
2023/04/25 02:14:13;;;;;;;;;10.75;10.25;;;;;10.83;55.97;100679.81;5062047;28;45493;-60
2023/04/25 02:16:39;;;;;;;;;9.00;7.50;;;;;10.84;56.05;100678.03;5062304;28;45226;-60
2023/04/25 02:19:05;;;;;;;;;9.50;7.75;;;;;10.81;55.98;100672.84;5044825;28;45275;-60
2023/04/25 02:21:31;;;;;;;;;7.00;6.00;;;;;10.81;55.98;100675.47;5062097;28;46290;-60
2023/04/25 02:23:56;;;;;;;;;9.00;7.75;;;;;10.83;55.97;100678.91;5062177;28;45214;-60
2023/04/25 02:26:23;;;;;;;;;7.50;7.50;;;;;10.82;56.05;100678.06;5061899;28;45440;-60
2023/04/25 02:28:49;;;;;;;;;7.75;7.50;;;;;10.81;56.04;100675.47;5040801;28;45776;-60
2023/04/25 02:31:15;;;;;;;;;10.00;9.00;;;;;10.82;56.04;100677.22;5059966;28;45266;-60
2023/04/25 02:33:40;;;;;;;;;4.75;4.50;;;;;10.84;56.12;100683.28;5062144;28;45391;-60
2023/04/25 02:36:06;;;;;;;;;12.25;9.00;;;;;10.84;56.20;100672.78;5061881;28;45451;-60
2023/04/25 02:38:31;;;;;;;;;9.50;8.00;;;;;10.85;56.04;100682.41;5061852;28;45328;-61
2023/04/25 02:40:56;;;;;;;;;10.00;9.00;;;;;10.85;55.96;100682.41;5061556;28;45411;-60
2023/04/25 02:43:21;;;;;;;;;12.25;10.50;;;;;10.86;56.10;100684.16;5061897;28;45288;-60
2023/04/25 02:45:47;;;;;;;;;11.50;9.25;;;;;10.84;56.16;100676.28;5061951;28;45288;-60
2023/04/25 02:48:12;;;;;;;;;12.00;9.50;;;;;10.84;56.16;100681.56;5048593;28;45629;-60
2023/04/25 02:50:37;;;;;;;;;14.25;9.00;;;;;10.84;56.31;100691.19;5059812;28;45368;-60
2023/04/25 02:53:03;;;;;;;;;11.25;8.00;;;;;10.79;56.18;100688.66;5060846;28;45307;-61
2023/04/25 02:55:28;;;;;;;;;12.00;9.75;;;;;10.82;56.23;100692.97;5061465;28;45886;-61
2023/04/25 02:57:55;;;;;;;;;10.75;7.50;;;;;10.81;56.35;100697.34;5061580;28;45367;-59
2023/04/25 03:00:21;;;;;;;;;11.50;9.75;;;;;10.73;56.19;100681.72;5043473;28;47180;-60
2023/04/25 03:02:47;;;;;;;;;11.50;9.50;;;;;10.82;56.15;100706.13;5043725;28;45332;-60
2023/04/25 03:05:12;;;;;;;;;12.25;12.00;;;;;10.81;56.24;100696.50;5043189;28;45257;-61
2023/04/25 03:07:39;;;;;;;;;19.50;12.25;;;;;10.80;56.33;100700.88;5061732;28;45282;-61
2023/04/25 03:10:08;;;;;;;;;16.75;12.00;;;;;10.79;56.51;100703.53;5060986;28;47064;-61
2023/04/25 03:12:33;;;;;;;;;10.25;9.25;;;;;10.78;56.52;100694.78;5061423;28;45332;-59
2023/04/25 03:14:58;;;;;;;;;10.25;9.75;;;;;10.77;56.62;100692.16;5060880;28;45411;-59
2023/04/25 03:17:24;;;;;;;;;12.00;10.50;;;;;10.76;56.58;100685.19;5039865;28;45540;-60
2023/04/25 03:19:49;;;;;;;;;13.75;11.25;;;;;10.79;56.48;100700.91;5023136;28;46035;-60
2023/04/25 03:22:14;;;;;;;;;12.75;12.00;;;;;10.79;56.25;100701.78;5051564;28;45154;-60
2023/04/25 03:24:40;;;;;;;;;11.25;11.00;;;;;10.77;56.31;100692.16;5061302;28;45683;-60
2023/04/25 03:27:05;;;;;;;;;14.50;13.25;;;;;10.77;56.35;100694.78;5061045;28;45326;-60
2023/04/25 03:29:30;;;;;;;;;10.50;9.25;;;;;10.76;56.39;100695.72;5061114;28;46273;-60
2023/04/25 03:31:56;;;;;;;;;16.00;12.00;;;;;10.77;56.37;100687.78;5061206;28;45251;-61
2023/04/25 03:34:21;;;;;;;;;16.50;11.50;;;;;10.77;56.22;100697.41;5060838;28;47859;-61
2023/04/25 03:36:47;;;;;;;;;14.25;11.25;;;;;10.76;56.19;100696.56;5060797;28;45283;-61
2023/04/25 03:39:12;;;;;;;;;11.50;11.50;;;;;10.72;56.41;100690.47;5060745;28;45332;-61
2023/04/25 03:41:38;;;;;;;;;16.75;12.50;;;;;10.76;56.24;100706.22;5061004;28;45277;-61
2023/04/25 03:44:03;;;;;;;;;15.00;13.50;;;;;10.71;56.43;100701.03;5061044;28;45212;-61
2023/04/25 03:46:28;;;;;;;;;14.50;12.25;;;;;10.69;56.33;100708.94;5060954;28;45332;-61
2023/04/25 03:48:54;;;;;;;;;14.25;11.25;;;;;10.66;56.48;100703.72;5060775;28;45324;-61
2023/04/25 03:51:19;;;;;;;;;13.50;10.75;;;;;10.66;56.35;100706.34;5060882;28;45309;-61
2023/04/25 03:53:44;;;;;;;;;12.50;12.00;;;;;10.61;56.40;100697.66;5039078;28;45318;-60
2023/04/25 03:56:10;;;;;;;;;11.25;10.75;;;;;10.65;56.36;100698.50;5050749;28;45429;-61
2023/04/25 03:58:35;;;;;;;;;15.75;14.25;;;;;10.61;56.37;100695.03;5060526;28;46097;-61
2023/04/25 04:01:02;;;;;;;;;12.50;12.50;;;;;10.60;56.29;100695.06;5060808;28;45309;-61
2023/04/25 04:03:28;;;;;;;;;13.50;10.50;;;;;10.59;56.25;100699.47;5060643;28;45462;-61
2023/04/25 04:05:53;;;;;;;;;16.00;12.00;;;;;10.58;56.11;100702.97;5060140;28;45435;-61
2023/04/25 04:08:19;;;;;;;;;14.50;13.00;;;;;10.56;56.40;100703.00;5060395;28;46197;-59
2023/04/25 04:10:44;;;;;;;;;15.75;15.75;;;;;10.56;56.33;100703.00;5060352;28;45317;-59
2023/04/25 04:13:10;;;;;;;;;9.00;7.75;;;;;10.52;56.19;100690.78;5060300;28;45485;-61
2023/04/25 04:15:35;;;;;;;;;12.75;11.25;;;;;10.55;56.50;100701.25;5060550;28;45443;-61
2023/04/25 04:18:02;;;;;;;;;17.00;12.75;;;;;10.54;56.29;100703.91;5060246;28;45403;-59
2023/04/25 04:20:29;;;;;;;;;12.25;11.00;;;;;10.53;56.54;100697.78;5059160;28;45335;-59
2023/04/25 04:22:54;;;;;;;;;14.25;14.25;;;;;10.50;56.47;100703.09;5060393;28;45447;-61
2023/04/25 04:25:19;;;;;;;;;17.75;13.25;;;;;10.50;56.49;100703.09;5060007;28;45688;-61
2023/04/25 04:27:45;;;;;;;;;15.50;9.50;;;;;10.51;56.48;100717.94;5040808;28;47580;-61
2023/04/25 04:30:12;;;;;;;;;20.25;14.75;;;;;10.48;56.49;100715.38;5060375;28;45299;-61
2023/04/25 04:32:38;;;;;;;;;13.00;10.25;;;;;10.50;56.52;100723.22;5060248;28;45340;-61
2023/04/25 04:35:04;;;;;;;;;13.50;13.50;;;;;10.49;56.50;100725.00;5042321;28;45447;-61
2023/04/25 04:37:30;;;;;;;;;15.75;12.75;;;;;10.50;56.43;100732.00;5059596;28;46531;-61
2023/04/25 04:39:55;;;;;;;;;13.75;12.50;;;;;10.50;56.58;100729.38;5059979;28;45178;-61
2023/04/25 04:42:21;;;;;;;;;17.25;16.00;;;;;10.51;56.49;100728.44;5059912;28;45235;-61
2023/04/25 04:44:47;;;;;;;;;16.00;11.50;;;;;10.51;56.41;100740.75;5060171;28;45262;-61
2023/04/25 04:47:13;;;;;;;;;13.00;11.00;;;;;10.49;56.41;100740.75;5059789;28;46950;-61
2023/04/25 04:49:39;;;;;;;;;15.50;11.25;;;;;10.51;56.41;100741.59;5042021;28;45328;-61
2023/04/25 04:52:05;;;;;;;;;12.50;12.50;;;;;10.51;56.56;100744.22;5059863;28;45690;-59
2023/04/25 04:54:30;;;;;;;;;16.75;14.00;;;;;10.46;56.35;100740.78;5059878;28;45320;-59
2023/04/25 04:56:56;;;;;;;;;33.00;29.75;;;;;10.51;56.46;100751.25;5059397;28;45331;-61
2023/04/25 04:59:21;;;;;;;;;21.00;16.50;;;;;10.50;56.69;100754.75;5059912;28;45320;-61
2023/04/25 05:01:46;;;;;;;;;17.00;15.75;;;;;10.51;56.62;100748.63;5041265;28;45254;-61
2023/04/25 05:04:12;;;;;;;;;18.50;16.00;;;;;10.52;56.51;100759.09;5038497;28;45594;-61
2023/04/25 05:06:37;;;;;;;;;17.75;17.25;;;;;10.51;56.63;100767.88;5055598;28;45504;-59
2023/04/25 05:09:03;;;;;;;;;16.50;14.50;;;;;10.54;56.75;100774.84;5059826;28;45379;-61
2023/04/25 05:11:28;;;;;;;;;23.00;17.50;;;;;10.52;56.86;100774.00;5039523;28;45198;-61
2023/04/25 05:13:54;;;;;;;;;16.50;14.50;;;;;10.49;56.77;100774.03;5059235;28;45389;-61
2023/04/25 05:16:20;;;;;;;;;19.75;18.50;;;;;10.51;56.80;100782.78;5059623;28;45909;-61
2023/04/25 05:18:48;;;;;;;;;21.50;17.25;;;;;10.51;56.87;100777.53;5063206;28;45242;-61
2023/04/25 05:21:13;;;;;;;;;16.75;15.00;;;;;10.51;56.88;100783.63;5063294;28;45376;-61
2023/04/25 05:23:38;;;;;;;;;17.50;16.75;;;;;10.53;56.66;100784.50;5041621;28;45359;-59
2023/04/25 05:26:04;;;;;;;;;15.75;15.75;;;;;10.53;56.63;100788.88;5057768;28;50678;-59
2023/04/25 05:28:29;;;;;;;;;19.25;16.25;;;;;10.56;56.86;100802.88;5063132;28;45324;-59
2023/04/25 05:30:54;;;;;;;;;18.50;16.50;;;;;10.58;56.79;100808.09;5063056;28;45300;-59
2023/04/25 05:33:20;;;;;;;;;19.00;14.50;;;;;10.61;56.60;100804.56;5062979;28;45420;-59
2023/04/25 05:35:46;;;;;;;;;18.25;17.00;;;;;10.62;56.74;100807.16;5062789;28;45411;-61
2023/04/25 05:38:12;;;;;;;;;20.25;16.75;;;;;10.64;56.51;100810.63;5062768;28;45813;-61
2023/04/25 05:40:37;;;;;;;;;15.50;15.00;;;;;10.64;56.72;100815.91;5044525;28;45407;-61
2023/04/25 05:43:03;;;;;;;;;17.75;14.00;;;;;10.67;56.77;100818.47;5044916;28;45400;-61
2023/04/25 05:45:28;;;;;;;;;17.75;17.25;;;;;10.68;56.75;100822.84;5062788;28;46434;-61
2023/04/25 05:47:54;;;;;;;;;15.25;14.75;;;;;10.66;56.64;100824.59;5062866;28;45262;-61
2023/04/25 05:50:19;;;;;;;;;12.50;11.50;;;;;10.69;56.64;100835.09;5062870;28;45235;-61
2023/04/25 05:52:44;;;;;;;;;19.25;18.25;;;;;10.72;56.62;100836.81;5062861;28;45218;-61
2023/04/25 05:55:10;;;;;;;;;17.00;16.00;;;;;10.72;56.76;100835.03;5061700;28;59423;-62
2023/04/25 05:57:35;;;;;;;;;19.25;18.00;;;;;10.71;56.54;100838.56;5062725;28;45253;-62
2023/04/25 06:00:01;;;;;;;;;16.75;11.25;;;;;10.77;56.72;100850.75;5062645;28;45481;-62
2023/04/25 06:02:26;;;;;;;;;19.50;15.25;;;;;10.77;56.94;100852.50;5062819;28;45485;-62
2023/04/25 06:04:52;;;;;;;;;19.25;17.50;;;;;10.79;56.77;100851.63;5062192;28;46038;-62
2023/04/25 06:07:18;;;;;;;;;17.25;14.25;;;;;10.81;56.99;100847.19;5062357;28;45474;-62
2023/04/25 06:09:44;;;;;;;;;16.00;13.75;;;;;10.81;56.91;100852.44;5062375;28;45333;-62
2023/04/25 06:12:10;;;;;;;;;16.00;15.00;;;;;10.86;56.80;100852.41;5062269;28;45309;-62
2023/04/25 06:14:35;;;;;;;;;20.00;17.75;;;;;10.88;56.98;100861.16;5061780;28;45544;-62
2023/04/25 06:17:06;;;;;;;;;19.75;17.50;;;;;10.88;56.73;100850.63;5062175;28;45392;-62
2023/04/25 06:19:32;;;;;;;;;24.50;20.50;;;;;10.92;56.79;100862.84;5062244;28;45302;-60
2023/04/25 06:21:57;;;;;;;;;22.25;21.75;;;;;10.94;57.04;100861.03;5062159;28;45546;-62
2023/04/25 06:24:23;;;;;;;;;20.50;18.50;;;;;10.97;57.06;100858.38;5061903;28;46011;-62
2023/04/25 06:26:48;;;;;;;;;29.75;26.00;;;;;10.98;56.88;100856.59;5061973;28;45863;-62
2023/04/25 06:29:13;;;;;;;;;24.50;21.00;;;;;10.98;56.93;100857.50;5041783;28;45411;-62
2023/04/25 06:31:39;;;;;;;;;23.50;21.75;;;;;11.03;56.99;100860.03;5062078;28;45611;-62
2023/04/25 06:34:04;;;;;;;;;22.50;21.25;;;;;11.05;56.82;100864.38;5061621;28;46411;-63
2023/04/25 06:36:30;;;;;;;;;19.00;17.00;;;;;11.04;56.93;100857.41;5061699;28;46136;-63
2023/04/25 06:38:55;;;;;;;;;18.75;15.25;;;;;11.03;56.85;100858.28;5061004;28;45394;-62
2023/04/25 06:41:21;;;;;;;;;21.50;18.75;;;;;11.05;56.84;100859.13;5043658;28;45479;-61
2023/04/25 06:43:46;;;;;;;;;14.50;12.25;;;;;11.11;56.81;100866.06;5061888;28;45424;-62
2023/04/25 06:46:12;;;;;;;;;16.00;14.25;;;;;11.13;56.85;100866.03;5062163;28;45445;-61
2023/04/25 06:48:37;;;;;;;;;18.50;17.00;;;;;11.13;56.69;100860.78;5061794;28;45493;-61
2023/04/25 06:51:03;;;;;;;;;13.00;11.50;;;;;11.15;56.56;100865.13;5062034;28;45408;-62
2023/04/25 06:53:28;;;;;;;;;15.25;12.25;;;;;11.18;56.68;100874.72;5061680;28;47102;-62
2023/04/25 06:55:53;;;;;;;;;15.25;12.75;;;;;11.14;56.72;100863.38;5054260;28;45373;-62
2023/04/25 06:58:19;;;;;;;;;17.50;15.25;;;;;11.19;56.52;100871.22;5041421;28;46021;-62
2023/04/25 07:00:44;;;;;;;;;17.00;13.50;;;;;11.25;56.72;100881.66;5041638;28;45275;-62
2023/04/25 07:03:10;;;;;;;;;11.25;11.25;;;;;11.25;56.72;100883.44;5023816;28;45609;-62
2023/04/25 07:05:35;;;;;;;;;12.00;9.75;;;;;11.26;56.80;100888.66;5048103;28;45302;-62
2023/04/25 07:08:00;;;;;;;;;17.50;10.75;;;;;11.33;56.65;100894.69;5061561;28;45282;-63
2023/04/25 07:10:26;;;;;;;;;12.00;9.50;;;;;11.35;56.53;100906.94;5043318;28;45505;-63
2023/04/25 07:12:51;;;;;;;;;11.00;10.00;;;;;11.37;56.55;100905.16;5043415;28;46081;-63
2023/04/25 07:15:17;;;;;;;;;7.75;7.75;;;;;11.38;56.75;100899.00;5061275;28;45239;-63
2023/04/25 07:17:42;;;;;;;;;19.50;16.50;;;;;11.40;56.62;100900.75;5061352;28;45461;-63
2023/04/25 07:20:09;;;;;;;;;11.50;10.25;;;;;11.43;56.60;100911.22;5061523;28;45563;-63
2023/04/25 07:22:34;;;;;;;;;12.50;11.25;;;;;11.46;56.67;100916.41;5060918;28;45540;-63
2023/04/25 07:25:00;;;;;;;;;17.75;13.75;;;;;11.49;56.53;100916.38;5061001;28;45273;-63
2023/04/25 07:27:25;;;;;;;;;22.00;16.50;;;;;11.50;56.42;100920.75;5061454;28;45811;-63
2023/04/25 07:29:51;;;;;;;;;37.00;31.50;;;;;11.53;56.55;100924.22;5061253;28;45332;-62
2023/04/25 07:32:16;;;;;;;;;9.50;9.50;;;;;11.54;56.55;100919.81;5061234;28;45357;-63
2023/04/25 07:34:41;;;;;;;;;12.00;12.00;;;;;11.57;56.51;100925.00;5061159;28;45331;-63
2023/04/25 07:37:07;;;;;;;;;16.00;14.25;;;;;11.58;56.46;100926.75;5060970;28;45249;-63
2023/04/25 07:39:32;;;;;;;;;20.00;16.50;;;;;11.62;56.16;100936.38;5060391;28;45646;-63
2023/04/25 07:42:02;;;;;;;;;17.50;14.50;;;;;11.63;56.44;100940.72;5059531;28;47490;-63
2023/04/25 07:44:27;;;;;;;;;20.00;17.25;;;;;11.66;56.30;100945.94;5042886;28;45317;-63
2023/04/25 07:46:53;;;;;;;;;16.50;15.50;;;;;11.68;56.48;100948.56;5060996;28;45236;-63
2023/04/25 07:49:18;;;;;;;;;17.75;16.00;;;;;11.68;56.29;100945.91;5060051;28;45512;-63
2023/04/25 07:51:44;;;;;;;;;15.25;14.00;;;;;11.69;56.28;100955.56;5042835;28;48167;-63
2023/04/25 07:54:12;;;;;;;;;15.25;15.00;;;;;11.74;56.47;100955.50;5060572;28;45398;-63
2023/04/25 07:56:38;;;;;;;;;26.00;18.00;;;;;11.77;56.22;100969.47;5060771;28;45233;-63
2023/04/25 07:59:03;;;;;;;;;16.50;14.75;;;;;11.76;56.36;100967.75;5060604;28;45721;-63
2023/04/25 08:01:28;;;;;;;;;13.50;11.75;;;;;11.74;56.36;100969.53;5060856;28;46689;-63
2023/04/25 08:03:54;;;;;;;;;20.50;17.50;;;;;11.77;56.25;100973.88;5060615;28;45201;-63
2023/04/25 08:06:19;;;;;;;;;22.50;20.75;;;;;11.76;55.98;100978.28;5043969;28;45259;-63
2023/04/25 08:08:45;;;;;;;;;21.25;17.00;;;;;11.78;56.41;100978.25;5035153;28;45262;-63
2023/04/25 08:11:10;;;;;;;;;22.75;21.75;;;;;11.75;56.33;100996.72;5060084;28;45328;-63
2023/04/25 08:13:36;;;;;;;;;25.00;24.75;;;;;11.76;56.28;100995.81;5060556;28;49529;-63
2023/04/25 08:16:04;;;;;;;;;32.00;26.50;;;;;11.71;56.15;100996.78;5060182;28;45321;-63
2023/04/25 08:18:29;;;;;;;;;27.50;22.25;;;;;11.69;56.21;101009.06;5060546;28;45324;-63
2023/04/25 08:20:54;;;;;;;;;29.50;24.25;;;;;11.70;56.11;101020.50;5060193;28;45368;-63
2023/04/25 08:23:20;;;;;;;;;22.75;18.50;;;;;11.72;55.96;101021.31;5042448;28;45277;-63
2023/04/25 08:25:45;;;;;;;;;23.75;20.25;;;;;11.68;56.18;101023.16;5041781;28;45483;-63
2023/04/25 08:28:10;;;;;;;;;24.00;19.00;;;;;11.69;56.11;101019.59;5042108;28;45402;-63
2023/04/25 08:30:36;;;;;;;;;22.75;20.00;;;;;11.67;55.92;101021.41;5059697;28;53618;-63
2023/04/25 08:33:01;;;;;;;;;24.25;22.00;;;;;11.70;55.99;101020.50;5060354;28;45382;-63
2023/04/25 08:35:27;;;;;;;;;27.50;23.25;;;;;11.70;56.13;101026.63;5042103;28;45380;-63
2023/04/25 08:37:52;;;;;;;;;24.25;22.25;;;;;11.74;55.95;101037.13;5059969;28;45556;-63
2023/04/25 08:40:25;;;;;;;;;24.00;20.50;;;;;11.77;56.23;101042.31;5059534;28;45439;-63
2023/04/25 08:42:53;;;;;;;;;22.00;20.50;;;;;11.71;55.96;101033.63;5060113;28;45390;-62
2023/04/25 08:45:18;;;;;;;;;21.50;20.50;;;;;11.81;55.85;101044.91;5060053;28;45554;-62
2023/04/25 08:47:45;;;;;;;;;21.50;17.25;;;;;11.85;55.90;101049.22;5041732;28;45338;-62
2023/04/25 08:50:11;;;;;;;;;20.25;16.75;;;;;11.84;55.94;101044.84;5059744;28;45524;-62
2023/04/25 08:52:39;;;;;;;;;22.50;19.75;;;;;11.92;55.66;101051.78;5058733;28;45217;-63
2023/04/25 08:55:08;;;;;;;;;20.50;17.50;;;;;11.94;55.80;101047.34;5059655;28;45407;-61
2023/04/25 08:57:34;;;;;;;;;17.75;16.50;;;;;11.97;55.57;101056.09;5041547;28;45577;-62
2023/04/25 09:00:01;;;;;;;;;22.50;16.75;;;;;12.00;55.73;101050.78;5041725;28;47985;-63
2023/04/25 09:02:27;;;;;;;;;22.50;15.00;;;;;12.04;55.69;101051.63;5059594;28;45207;-62
2023/04/25 09:04:54;;;;;;;;;23.50;17.75;;;;;12.03;55.59;101053.38;5059930;28;45234;-62
2023/04/25 09:07:21;;;;;;;;;23.50;18.50;;;;;12.11;55.78;101062.94;5039834;28;45508;-62
2023/04/25 09:09:49;;;;;;;;;21.25;18.50;;;;;12.13;55.44;101066.41;5041105;28;46747;-62
2023/04/25 09:12:15;;;;;;;;;19.50;18.00;;;;;12.17;55.53;101071.59;5041506;28;46286;-62
2023/04/25 09:14:42;;;;;;;;;19.25;18.00;;;;;12.18;55.53;101075.97;5041616;28;45178;-62
2023/04/25 09:17:07;;;;;;;;;18.25;16.50;;;;;12.23;55.50;101081.19;5041368;28;45689;-62
2023/04/25 09:19:36;;;;;;;;;18.25;17.25;;;;;12.23;55.48;101083.81;5059821;28;46555;-61
2023/04/25 09:22:04;;;;;;;;;18.75;15.00;;;;;12.27;55.43;101092.56;5040925;28;45463;-63
2023/04/25 09:24:41;;;;;;;;;18.75;15.00;;;;;12.28;55.33;101091.66;5041511;28;45282;-62
2023/04/25 09:27:09;;;;;;;;;33.75;27.50;;;;;12.30;55.32;101096.00;5059161;28;45482;-62
2023/04/25 09:29:37;;;;;;;;;17.75;16.00;;;;;12.28;55.46;101092.50;5041208;28;47433;-63
2023/04/25 09:32:14;;;;;;;;;22.50;14.75;;;;;12.38;55.29;101102.91;5059242;28;45365;-63
2023/04/25 09:34:42;;;;;;;;;19.25;16.00;;;;;12.39;55.35;101102.00;5059514;28;45498;-63
2023/04/25 09:37:11;;;;;;;;;15.50;12.00;;;;;12.45;55.35;101113.34;5040811;28;45249;-63
2023/04/25 09:39:37;;;;;;;;;20.75;15.75;;;;;12.46;55.23;101099.25;5059034;28;45352;-63
2023/04/25 09:42:06;;;;;;;;;15.75;11.00;;;;;12.53;55.06;101107.94;5058987;28;45298;-63
2023/04/25 09:44:32;;;;;;;;;15.00;13.75;;;;;12.58;54.98;101111.38;5059363;28;45420;-63
2023/04/25 09:46:58;;;;;;;;;13.50;13.00;;;;;12.62;55.08;101114.84;5059081;28;45343;-61
2023/04/25 09:49:25;;;;;;;;;18.25;14.75;;;;;12.64;54.99;101113.03;5059067;28;46382;-61
2023/04/25 09:51:57;;;;;;;;;19.25;15.00;;;;;12.71;55.11;101113.81;5059278;28;45278;-62
2023/04/25 09:54:26;;;;;;;;;14.50;13.25;;;;;12.76;54.78;101122.50;5040941;28;45328;-63
2023/04/25 09:56:53;;;;;;;;;16.75;14.50;;;;;12.80;54.77;101124.19;5058694;28;45398;-63
2023/04/25 09:59:24;;;;;;;;;18.75;13.25;;;;;12.83;54.75;101118.88;5058804;28;45332;-63
2023/04/25 10:01:52;;;;;;;;;16.75;14.50;;;;;12.84;54.80;101131.13;5059050;28;45294;-63
2023/04/25 10:04:22;;;;;;;;;14.75;13.25;;;;;12.86;54.65;101141.69;5062187;28;45273;-62
2023/04/25 10:06:49;;;;;;;;;20.00;17.50;;;;;12.89;54.50;101150.38;5059171;28;45208;-62
2023/04/25 10:09:15;;;;;;;;;13.75;13.00;;;;;12.91;54.74;101150.38;5040783;28;47140;-62
2023/04/25 10:11:41;;;;;;;;;18.25;15.00;;;;;12.91;54.74;101156.53;5062171;28;45318;-62
2023/04/25 10:14:06;;;;;;;;;17.00;16.50;;;;;12.92;54.42;101146.84;5062368;28;45229;-62
2023/04/25 10:16:32;;;;;;;;;20.75;17.50;;;;;12.93;54.49;101154.75;5062302;28;45324;-62
2023/04/25 10:18:57;;;;;;;;;16.75;15.25;;;;;12.92;54.73;101153.00;5062212;28;45361;-62
2023/04/25 10:21:26;;;;;;;;;20.50;16.75;;;;;12.95;54.55;101166.13;5062262;28;45265;-62
2023/04/25 10:23:53;;;;;;;;;19.75;12.75;;;;;12.97;54.54;101150.28;5027750;28;45396;-62
2023/04/25 10:26:19;;;;;;;;;17.75;14.00;;;;;12.98;54.66;101152.88;5043572;28;45782;-62
2023/04/25 10:29:02;;;;;;;;;17.50;14.50;;;;;12.97;54.37;101140.59;5043789;28;46686;-62
2023/04/25 10:31:30;;;;;;;;;12.75;11.00;;;;;13.01;54.48;101147.53;5062011;28;45364;-62
2023/04/25 10:33:56;;;;;;;;;17.50;13.75;;;;;13.01;54.49;101147.53;5061922;28;45323;-62
2023/04/25 10:36:23;;;;;;;;;12.00;10.50;;;;;13.05;54.44;101148.34;5061672;28;45392;-62
2023/04/25 10:38:52;;;;;;;;;15.50;13.00;;;;;13.11;54.35;101155.31;5062109;28;46224;-63
2023/04/25 10:41:19;;;;;;;;;23.50;20.50;;;;;13.13;54.42;101161.41;5043394;28;46022;-63
2023/04/25 10:43:46;;;;;;;;;14.50;12.25;;;;;13.13;54.46;101149.09;5061988;28;45301;-63
2023/04/25 10:46:25;;;;;;;;;14.25;12.00;;;;;13.19;54.05;101156.03;5061712;28;45531;-63
2023/04/25 10:48:51;;;;;;;;;9.25;7.75;;;;;13.20;53.94;101149.84;5061753;28;46122;-63
2023/04/25 10:51:32;;;;;;;;;12.75;11.50;;;;;13.24;54.03;101164.72;5061731;28;45194;-63
2023/04/25 10:53:57;;;;;;;;;13.00;10.25;;;;;13.28;54.50;101166.44;5061668;28;45304;-63
2023/04/25 10:56:25;;;;;;;;;9.75;9.00;;;;;13.29;54.07;101162.88;5043074;28;45621;-63
2023/04/25 10:58:51;;;;;;;;;9.50;8.75;;;;;13.36;53.61;101161.00;5060519;28;47178;-63
2023/04/25 11:01:21;;;;;;;;;14.00;11.25;;;;;13.40;53.95;101164.50;5061589;28;45245;-63
2023/04/25 11:03:50;;;;;;;;;13.75;12.25;;;;;13.41;53.89;101166.19;5061862;28;45328;-63
2023/04/25 11:06:38;;;;;;;;;13.00;10.75;;;;;13.46;53.73;101164.38;5061107;28;45419;-63
2023/04/25 11:09:13;;;;;;;;;13.00;13.00;;;;;13.48;53.66;101166.09;5002513;28;45536;-63